sensor_id;sensor_type;location;lat;lon;timestamp;pressure;altitude;pressure_sealevel;temperature
67509;BMP280;54354;44.724;11.284;2023-05-24T00:01:21;101204.78;;;24.92
67509;BMP280;54354;44.724;11.284;2023-05-24T00:03:51;101197.91;;;24.85
67509;BMP280;54354;44.724;11.284;2023-05-24T00:06:17;101195.97;;;24.80
67509;BMP280;54354;44.724;11.284;2023-05-24T00:08:43;101195.69;;;24.78
67509;BMP280;54354;44.724;11.284;2023-05-24T00:11:08;101205.31;;;24.79
67509;BMP280;54354;44.724;11.284;2023-05-24T00:13:36;101191.06;;;24.73
67509;BMP280;54354;44.724;11.284;2023-05-24T00:16:01;101192.81;;;24.70
67509;BMP280;54354;44.724;11.284;2023-05-24T00:18:27;101204.09;;;24.69
67509;BMP280;54354;44.724;11.284;2023-05-24T00:20:56;101199.41;;;24.64
67509;BMP280;54354;44.724;11.284;2023-05-24T00:23:23;101205.84;;;24.61
67509;BMP280;54354;44.724;11.284;2023-05-24T00:25:53;101213.00;;;24.58
67509;BMP280;54354;44.724;11.284;2023-05-24T00:28:18;101205.34;;;24.56
67509;BMP280;54354;44.724;11.284;2023-05-24T00:30:44;101214.75;;;24.55
67509;BMP280;54354;44.724;11.284;2023-05-24T00:33:09;101212.50;;;24.54
67509;BMP280;54354;44.724;11.284;2023-05-24T00:35:35;101216.44;;;24.53
67509;BMP280;54354;44.724;11.284;2023-05-24T00:38:00;101213.75;;;24.47
67509;BMP280;54354;44.724;11.284;2023-05-24T00:40:26;101219.63;;;24.46
67509;BMP280;54354;44.724;11.284;2023-05-24T00:42:51;101218.19;;;24.45
67509;BMP280;54354;44.724;11.284;2023-05-24T00:45:17;101214.50;;;24.42
67509;BMP280;54354;44.724;11.284;2023-05-24T00:47:43;101218.19;;;24.39
67509;BMP280;54354;44.724;11.284;2023-05-24T00:50:10;101218.69;;;24.32
67509;BMP280;54354;44.724;11.284;2023-05-24T00:52:40;101215.75;;;24.30
67509;BMP280;54354;44.724;11.284;2023-05-24T00:55:06;101216.47;;;24.31
67509;BMP280;54354;44.724;11.284;2023-05-24T00:57:34;101207.88;;;24.26
67509;BMP280;54354;44.724;11.284;2023-05-24T01:00:02;101211.81;;;24.25
67509;BMP280;54354;44.724;11.284;2023-05-24T01:02:28;101211.03;;;24.25
67509;BMP280;54354;44.724;11.284;2023-05-24T01:04:53;101213.53;;;24.23
67509;BMP280;54354;44.724;11.284;2023-05-24T01:07:24;101202.25;;;24.13
67509;BMP280;54354;44.724;11.284;2023-05-24T01:10:25;101207.84;;;24.21
67509;BMP280;54354;44.724;11.284;2023-05-24T01:16:00;101201.25;;;24.05
67509;BMP280;54354;44.724;11.284;2023-05-24T01:18:36;101199.50;;;23.91
67509;BMP280;54354;44.724;11.284;2023-05-24T01:24:21;101202.19;;;23.85
67509;BMP280;54354;44.724;11.284;2023-05-24T01:27:04;101205.41;;;23.84
67509;BMP280;54354;44.724;11.284;2023-05-24T01:29:34;101189.91;;;23.79
67509;BMP280;54354;44.724;11.284;2023-05-24T01:32:01;101201.22;;;23.77
67509;BMP280;54354;44.724;11.284;2023-05-24T01:34:28;101198.00;;;23.73
67509;BMP280;54354;44.724;11.284;2023-05-24T01:36:53;101208.34;;;23.75
67509;BMP280;54354;44.724;11.284;2023-05-24T01:39:19;101204.16;;;23.74
67509;BMP280;54354;44.724;11.284;2023-05-24T01:48:04;101203.16;;;23.71
67509;BMP280;54354;44.724;11.284;2023-05-24T01:50:36;101196.50;;;23.61
67509;BMP280;54354;44.724;11.284;2023-05-24T01:53:06;101195.78;;;23.55
67509;BMP280;54354;44.724;11.284;2023-05-24T01:55:33;101200.66;;;23.56
67509;BMP280;54354;44.724;11.284;2023-05-24T01:58:02;101199.44;;;23.52
67509;BMP280;54354;44.724;11.284;2023-05-24T02:00:30;101198.44;;;23.49
67509;BMP280;54354;44.724;11.284;2023-05-24T02:02:57;101193.78;;;23.50
67509;BMP280;54354;44.724;11.284;2023-05-24T02:05:23;101201.88;;;23.50
67509;BMP280;54354;44.724;11.284;2023-05-24T02:07:48;101197.69;;;23.49
67509;BMP280;54354;44.724;11.284;2023-05-24T02:10:14;101188.84;;;23.48
67509;BMP280;54354;44.724;11.284;2023-05-24T02:12:39;101193.28;;;23.46
67509;BMP280;54354;44.724;11.284;2023-05-24T02:15:05;101190.31;;;23.44
67509;BMP280;54354;44.724;11.284;2023-05-24T02:17:31;101190.56;;;23.40
67509;BMP280;54354;44.724;11.284;2023-05-24T02:19:58;101194.47;;;23.33
67509;BMP280;54354;44.724;11.284;2023-05-24T02:22:28;101192.25;;;23.32
67509;BMP280;54354;44.724;11.284;2023-05-24T02:25:04;101196.19;;;23.31
67509;BMP280;54354;44.724;11.284;2023-05-24T02:27:29;101192.94;;;23.27
67509;BMP280;54354;44.724;11.284;2023-05-24T02:29:58;101191.22;;;23.24
67509;BMP280;54354;44.724;11.284;2023-05-24T02:32:23;101201.56;;;23.25
67509;BMP280;54354;44.724;11.284;2023-05-24T02:34:49;101192.97;;;23.21
67509;BMP280;54354;44.724;11.284;2023-05-24T02:37:14;101196.13;;;23.20
67509;BMP280;54354;44.724;11.284;2023-05-24T02:39:40;101191.94;;;23.19
67509;BMP280;54354;44.724;11.284;2023-05-24T02:42:06;101184.34;;;23.17
67509;BMP280;54354;44.724;11.284;2023-05-24T02:44:33;101191.47;;;23.20
67509;BMP280;54354;44.724;11.284;2023-05-24T02:46:59;101192.19;;;23.21
67509;BMP280;54354;44.724;11.284;2023-05-24T02:49:25;101192.72;;;23.25
67509;BMP280;54354;44.724;11.284;2023-05-24T02:51:50;101199.59;;;23.26
67509;BMP280;54354;44.724;11.284;2023-05-24T02:54:17;101200.84;;;23.25
67509;BMP280;54354;44.724;11.284;2023-05-24T02:56:43;101201.06;;;23.27
67509;BMP280;54354;44.724;11.284;2023-05-24T02:59:09;101201.06;;;23.27
67509;BMP280;54354;44.724;11.284;2023-05-24T03:01:36;101201.81;;;23.27
67509;BMP280;54354;44.724;11.284;2023-05-24T03:04:01;101199.34;;;23.29
67509;BMP280;54354;44.724;11.284;2023-05-24T03:06:28;101199.63;;;23.31
67509;BMP280;54354;44.724;11.284;2023-05-24T03:08:55;101205.03;;;23.31
67509;BMP280;54354;44.724;11.284;2023-05-24T03:11:23;101206.75;;;23.29
67509;BMP280;54354;44.724;11.284;2023-05-24T03:13:49;101203.28;;;23.28
67509;BMP280;54354;44.724;11.284;2023-05-24T03:16:14;101210.66;;;23.28
67509;BMP280;54354;44.724;11.284;2023-05-24T03:18:41;101211.88;;;23.27
67509;BMP280;54354;44.724;11.284;2023-05-24T03:21:06;101212.13;;;23.29
67509;BMP280;54354;44.724;11.284;2023-05-24T03:23:33;101212.38;;;23.25
67509;BMP280;54354;44.724;11.284;2023-05-24T03:26:00;101213.84;;;23.26
67509;BMP280;54354;44.724;11.284;2023-05-24T03:28:26;101216.53;;;23.26
67509;BMP280;54354;44.724;11.284;2023-05-24T03:30:52;101220.22;;;23.23
67509;BMP280;54354;44.724;11.284;2023-05-24T03:33:17;101228.31;;;23.18
67509;BMP280;54354;44.724;11.284;2023-05-24T03:35:43;101224.06;;;23.11
67509;BMP280;54354;44.724;11.284;2023-05-24T03:38:09;101216.22;;;23.07
67509;BMP280;54354;44.724;11.284;2023-05-24T03:40:37;101228.50;;;23.08
67509;BMP280;54354;44.724;11.284;2023-05-24T03:43:06;101230.47;;;23.08
67509;BMP280;54354;44.724;11.284;2023-05-24T03:45:43;101226.28;;;23.07
67509;BMP280;54354;44.724;11.284;2023-05-24T03:48:08;101232.16;;;23.05
67509;BMP280;54354;44.724;11.284;2023-05-24T03:50:34;101227.25;;;23.04
67509;BMP280;54354;44.724;11.284;2023-05-24T03:52:59;101223.31;;;23.05
67509;BMP280;54354;44.724;11.284;2023-05-24T03:55:25;101226.03;;;23.05
67509;BMP280;54354;44.724;11.284;2023-05-24T03:57:51;101225.03;;;23.02
67509;BMP280;54354;44.724;11.284;2023-05-24T04:00:16;101230.69;;;23.04
67509;BMP280;54354;44.724;11.284;2023-05-24T04:02:45;101228.44;;;23.03
67509;BMP280;54354;44.724;11.284;2023-05-24T04:05:12;101224.28;;;23.02
67509;BMP280;54354;44.724;11.284;2023-05-24T04:07:38;101225.28;;;23.04
67509;BMP280;54354;44.724;11.284;2023-05-24T04:10:05;101228.72;;;23.05
67509;BMP280;54354;44.724;11.284;2023-05-24T04:12:31;101218.66;;;23.05
67509;BMP280;54354;44.724;11.284;2023-05-24T04:14:58;101225.56;;;23.06
67509;BMP280;54354;44.724;11.284;2023-05-24T04:17:24;101225.56;;;23.06
67509;BMP280;54354;44.724;11.284;2023-05-24T04:19:50;101228.28;;;23.06
67509;BMP280;54354;44.724;11.284;2023-05-24T04:22:16;101226.28;;;23.07
67509;BMP280;54354;44.724;11.284;2023-05-24T04:24:44;101226.28;;;23.07
67509;BMP280;54354;44.724;11.284;2023-05-24T04:27:13;101222.88;;;23.12
67509;BMP280;54354;44.724;11.284;2023-05-24T04:29:39;101222.88;;;23.12
67509;BMP280;54354;44.724;11.284;2023-05-24T04:32:05;101226.34;;;23.18
67509;BMP280;54354;44.724;11.284;2023-05-24T04:34:34;101232.25;;;23.22
67509;BMP280;54354;44.724;11.284;2023-05-24T04:37:03;101234.50;;;23.35
67509;BMP280;54354;44.724;11.284;2023-05-24T04:39:32;101233.31;;;23.36
67509;BMP280;54354;44.724;11.284;2023-05-24T04:41:57;101232.09;;;23.43
67509;BMP280;54354;44.724;11.284;2023-05-24T04:44:25;101237.50;;;23.43
67509;BMP280;54354;44.724;11.284;2023-05-24T04:46:51;101238.50;;;23.45
67509;BMP280;54354;44.724;11.284;2023-05-24T04:49:17;101238.75;;;23.47
67509;BMP280;54354;44.724;11.284;2023-05-24T04:51:44;101233.84;;;23.51
67509;BMP280;54354;44.724;11.284;2023-05-24T04:54:11;101244.94;;;23.59
67509;BMP280;54354;44.724;11.284;2023-05-24T04:56:40;101241.78;;;23.66
67509;BMP280;54354;44.724;11.284;2023-05-24T04:59:08;101234.41;;;23.72
67509;BMP280;54354;44.724;11.284;2023-05-24T05:01:36;101237.34;;;23.85
67509;BMP280;54354;44.724;11.284;2023-05-24T05:04:02;101238.63;;;23.95
67509;BMP280;54354;44.724;11.284;2023-05-24T05:06:31;101242.84;;;24.13
67509;BMP280;54354;44.724;11.284;2023-05-24T05:08:59;101246.75;;;24.29
67509;BMP280;54354;44.724;11.284;2023-05-24T05:11:25;101241.56;;;24.48
67509;BMP280;54354;44.724;11.284;2023-05-24T05:13:52;101247.69;;;24.65
67509;BMP280;54354;44.724;11.284;2023-05-24T05:16:18;101251.88;;;24.72
67509;BMP280;54354;44.724;11.284;2023-05-24T05:18:44;101249.41;;;24.79
67509;BMP280;54354;44.724;11.284;2023-05-24T05:21:10;101255.03;;;24.87
67509;BMP280;54354;44.724;11.284;2023-05-24T05:23:35;101245.91;;;24.90
67509;BMP280;54354;44.724;11.284;2023-05-24T05:26:01;101253.31;;;24.95
67509;BMP280;54354;44.724;11.284;2023-05-24T05:28:26;101254.53;;;24.94
67509;BMP280;54354;44.724;11.284;2023-05-24T05:30:52;101256.00;;;24.95
67509;BMP280;54354;44.724;11.284;2023-05-24T05:33:17;101255.50;;;24.97
67509;BMP280;54354;44.724;11.284;2023-05-24T05:35:43;101255.47;;;25.02
67509;BMP280;54354;44.724;11.284;2023-05-24T05:38:08;101268.03;;;25.05
67509;BMP280;54354;44.724;11.284;2023-05-24T05:40:34;101264.84;;;25.12
67509;BMP280;54354;44.724;11.284;2023-05-24T05:42:59;101260.59;;;25.23
67509;BMP280;54354;44.724;11.284;2023-05-24T05:45:25;101261.53;;;25.31
67509;BMP280;54354;44.724;11.284;2023-05-24T05:47:51;101262.22;;;25.37
67509;BMP280;54354;44.724;11.284;2023-05-24T05:50:16;101266.91;;;25.42
67509;BMP280;54354;44.724;11.284;2023-05-24T05:52:42;101256.03;;;25.53
67509;BMP280;54354;44.724;11.284;2023-05-24T05:55:08;101257.91;;;25.64
67509;BMP280;54354;44.724;11.284;2023-05-24T05:57:34;101266.97;;;25.72
67509;BMP280;54354;44.724;11.284;2023-05-24T05:59:59;101272.28;;;25.89
67509;BMP280;54354;44.724;11.284;2023-05-24T06:02:25;101278.34;;;26.06
67509;BMP280;54354;44.724;11.284;2023-05-24T06:04:51;101275.41;;;26.34
67509;BMP280;54354;44.724;11.284;2023-05-24T06:07:16;101262.94;;;26.93
67509;BMP280;54354;44.724;11.284;2023-05-24T06:09:42;101272.28;;;27.67
67509;BMP280;54354;44.724;11.284;2023-05-24T06:12:07;101262.09;;;28.18
67509;BMP280;54354;44.724;11.284;2023-05-24T06:14:33;101266.25;;;28.59
67509;BMP280;54354;44.724;11.284;2023-05-24T06:16:58;101271.53;;;29.04
67509;BMP280;54354;44.724;11.284;2023-05-24T06:19:24;101268.53;;;29.49
67509;BMP280;54354;44.724;11.284;2023-05-24T06:21:51;101272.53;;;29.90
67509;BMP280;54354;44.724;11.284;2023-05-24T06:24:17;101272.81;;;30.07
67509;BMP280;54354;44.724;11.284;2023-05-24T06:26:45;101276.03;;;29.98
67509;BMP280;54354;44.724;11.284;2023-05-24T06:29:11;101273.06;;;29.88
67509;BMP280;54354;44.724;11.284;2023-05-24T06:31:36;101274.47;;;29.82
67509;BMP280;54354;44.724;11.284;2023-05-24T06:34:02;101269.25;;;29.91
67509;BMP280;54354;44.724;11.284;2023-05-24T06:36:27;101275.88;;;30.04
67509;BMP280;54354;44.724;11.284;2023-05-24T06:38:53;101288.47;;;30.07
67509;BMP280;54354;44.724;11.284;2023-05-24T06:41:18;101274.69;;;30.12
67509;BMP280;54354;44.724;11.284;2023-05-24T06:43:44;101278.84;;;30.13
67509;BMP280;54354;44.724;11.284;2023-05-24T06:46:10;101284.75;;;30.17
67509;BMP280;54354;44.724;11.284;2023-05-24T06:48:36;101282.94;;;30.27
67509;BMP280;54354;44.724;11.284;2023-05-24T06:51:01;101279.06;;;30.51
67509;BMP280;54354;44.724;11.284;2023-05-24T06:53:27;101288.47;;;30.79
67509;BMP280;54354;44.724;11.284;2023-05-24T06:55:53;101285.53;;;31.36
67509;BMP280;54354;44.724;11.284;2023-05-24T06:58:18;101286.34;;;32.14
67509;BMP280;54354;44.724;11.284;2023-05-24T07:00:44;101287.81;;;32.95
67509;BMP280;54354;44.724;11.284;2023-05-24T07:03:11;101283.88;;;33.73
67509;BMP280;54354;44.724;11.284;2023-05-24T07:05:37;101289.59;;;34.46
67509;BMP280;54354;44.724;11.284;2023-05-24T07:08:03;101288.66;;;34.97
67509;BMP280;54354;44.724;11.284;2023-05-24T07:10:28;101289.03;;;35.21
67509;BMP280;54354;44.724;11.284;2023-05-24T07:12:54;101284.00;;;35.56
67509;BMP280;54354;44.724;11.284;2023-05-24T07:15:20;101286.75;;;35.94
67509;BMP280;54354;44.724;11.284;2023-05-24T07:17:45;101291.34;;;36.21
67509;BMP280;54354;44.724;11.284;2023-05-24T07:20:12;101280.28;;;36.30
67509;BMP280;54354;44.724;11.284;2023-05-24T07:22:39;101279.78;;;36.53
67509;BMP280;54354;44.724;11.284;2023-05-24T07:25:05;101285.97;;;36.63
67509;BMP280;54354;44.724;11.284;2023-05-24T07:27:30;101289.75;;;36.68
67509;BMP280;54354;44.724;11.284;2023-05-24T07:29:56;101282.53;;;36.84
67509;BMP280;54354;44.724;11.284;2023-05-24T07:32:22;101277.50;;;37.02
67509;BMP280;54354;44.724;11.284;2023-05-24T07:34:48;101287.97;;;37.24
67509;BMP280;54354;44.724;11.284;2023-05-24T07:37:15;101284.84;;;37.51
67509;BMP280;54354;44.724;11.284;2023-05-24T07:39:41;101286.25;;;37.74
67509;BMP280;54354;44.724;11.284;2023-05-24T07:42:07;101283.28;;;37.93
67509;BMP280;54354;44.724;11.284;2023-05-24T07:44:32;101283.31;;;38.05
67509;BMP280;54354;44.724;11.284;2023-05-24T07:46:58;101283.78;;;38.01
67509;BMP280;54354;44.724;11.284;2023-05-24T07:49:23;101279.81;;;38.04
67509;BMP280;54354;44.724;11.284;2023-05-24T07:51:49;101277.06;;;38.04
67509;BMP280;54354;44.724;11.284;2023-05-24T07:54:14;101280.03;;;38.08
67509;BMP280;54354;44.724;11.284;2023-05-24T07:56:40;101277.78;;;38.16
67509;BMP280;54354;44.724;11.284;2023-05-24T07:59:06;101285.13;;;38.12
67509;BMP280;54354;44.724;11.284;2023-05-24T08:01:33;101275.09;;;37.95
67509;BMP280;54354;44.724;11.284;2023-05-24T08:04:02;101280.13;;;37.75
67509;BMP280;54354;44.724;11.284;2023-05-24T08:06:29;101282.44;;;37.57
